PWSweather.com
Personal Weather Stations
Station Observations
47125
LenggriesDE 83661

LenggriesDE 83661

Lat: 47.68455489999999, Lon: 11.55662499999994

Elevation: 685

Station Type: Netatmo

Latest ConditionsUpdated 9:47:00 PM GMT+01:01 Monday, Mar 25, 2019
Currently Today's Max Today's Min Today's Average
Temperature 35.2°F1.8°C 44.4°F6.9°C 35.2°F1.8°C 41.1°F5.1°C
Dew Point 27.3°F-2.6°C 37.0°F2.8°C 26.4°F-3.1°C 32.5°F0.3°C
Winds - N N - - - - -
Wind Gusts -- -- - -
Humidity 78% 83% 64% 77%
Pressure 30.55 in1034.5 mb 30.55 in1034.5 mb 30.41 in1029.8 mb -
Precipitation - 0.22 in5.6 mm - -
Hour Temp Dew Point Humidity Winds Wind Gusts Pressure Precip Precip Rate Daily Precip Total
09:47 PM 35.2°F1.8°C 27.3°F-2.6°C 78% - N N -- 30.55 in1034.5 mb 0.00 in0.0 mm 0.00 in0.0 mm 0.22 in5.6 mm
09:23 PM 35.2°F1.8°C 27.0°F-2.8°C 77% - N N -- 30.55 in1034.5 mb 0.00 in0.0 mm 0.00 in0.0 mm 0.22 in5.6 mm
09:02 PM 35.4°F1.9°C 27.1°F-2.7°C 77% - N N -- 30.54 in1034.2 mb 0.00 in0.0 mm 0.00 in0.0 mm 0.22 in5.6 mm
08:37 PM 35.8°F2.1°C 27.5°F-2.5°C 77% - N N -- 30.54 in1034.2 mb 0.00 in0.0 mm 0.00 in0.0 mm 0.22 in5.6 mm
08:27 PM 35.8°F2.1°C 27.5°F-2.5°C 77% - N N -- 30.53 in1033.9 mb 0.00 in0.0 mm 0.00 in0.0 mm 0.22 in5.6 mm
08:01 PM 35.6°F2.0°C 27.7°F-2.4°C 78% - N N -- 30.53 in1033.9 mb 0.00 in0.0 mm 0.00 in0.0 mm 0.22 in5.6 mm
07:52 PM 35.8°F2.1°C 28.2°F-2.1°C 79% - N N -- 30.52 in1033.5 mb 0.00 in0.0 mm 0.00 in0.0 mm 0.22 in5.6 mm
07:32 PM 36.7°F2.6°C 27.7°F-2.4°C 75% - N N -- 30.53 in1033.9 mb 0.00 in0.0 mm 0.01 in0.3 mm 0.22 in5.6 mm
07:11 PM 37.4°F3.0°C 26.4°F-3.1°C 70% - N N -- 30.51 in1033.2 mb 0.00 in0.0 mm 0.00 in0.0 mm 0.22 in5.6 mm
06:39 PM 37.4°F3.0°C 26.8°F-2.9°C 71% - N N -- 30.49 in1032.5 mb 0.00 in0.0 mm 0.00 in0.0 mm 0.22 in5.6 mm
06:30 PM 37.6°F3.1°C 27.0°F-2.8°C 71% - N N -- 30.49 in1032.5 mb 0.00 in0.0 mm 0.00 in0.0 mm 0.22 in5.6 mm
06:10 PM 37.8°F3.2°C 27.1°F-2.7°C 71% - N N -- 30.48 in1032.2 mb 0.00 in0.0 mm 0.00 in0.0 mm 0.22 in5.6 mm
05:49 PM 37.9°F3.3°C 28.0°F-2.2°C 73% - N N -- 30.47 in1031.8 mb 0.01 in0.3 mm 0.00 in0.0 mm 0.22 in5.6 mm
05:24 PM 37.9°F3.3°C 28.8°F-1.8°C 75% - N N -- 30.47 in1031.8 mb 0.01 in0.3 mm 0.01 in0.3 mm 0.22 in5.6 mm
04:59 PM 38.3°F3.5°C 28.8°F-1.8°C 74% - N N -- 30.47 in1031.8 mb 0.00 in0.0 mm 0.00 in0.0 mm 0.21 in5.3 mm
04:49 PM 39.0°F3.9°C 29.1°F-1.6°C 73% - N N -- 30.47 in1031.8 mb 0.00 in0.0 mm 0.00 in0.0 mm 0.21 in5.3 mm
04:24 PM 42.1°F5.6°C 30.2°F-1.0°C 68% - N N -- 30.44 in1030.8 mb 0.00 in0.0 mm 0.00 in0.0 mm 0.21 in5.3 mm
04:08 PM 42.3°F5.7°C 30.0°F-1.1°C 67% - N N -- 30.43 in1030.5 mb 0.00 in0.0 mm 0.01 in0.3 mm 0.21 in5.3 mm
03:49 PM 43.3°F6.3°C 30.7°F-0.7°C 66% - N N -- 30.43 in1030.5 mb 0.00 in0.0 mm 0.00 in0.0 mm 0.20 in5.1 mm
03:28 PM 43.9°F6.6°C 30.4°F-0.9°C 64% - N N -- 30.41 in1029.8 mb 0.00 in0.0 mm 0.00 in0.0 mm 0.20 in5.1 mm
03:08 PM 43.0°F6.1°C 31.5°F-0.3°C 69% - N N -- 30.42 in1030.1 mb 0.00 in0.0 mm 0.00 in0.0 mm 0.20 in5.1 mm
02:48 PM 42.6°F5.9°C 31.8°F-0.1°C 71% - N N -- 30.42 in1030.1 mb 0.00 in0.0 mm 0.00 in0.0 mm 0.20 in5.1 mm
02:27 PM 42.3°F5.7°C 31.1°F-0.5°C 70% - N N -- 30.42 in1030.1 mb 0.00 in0.0 mm 0.00 in0.0 mm 0.20 in5.1 mm
02:08 PM 41.9°F5.5°C 31.5°F-0.3°C 72% - N N -- 30.42 in1030.1 mb 0.01 in0.3 mm 0.00 in0.0 mm 0.20 in5.1 mm
01:42 PM 40.8°F4.9°C 32.0°F0.0°C 76% - N N -- 30.42 in1030.1 mb 0.02 in0.5 mm 0.00 in0.0 mm 0.20 in5.1 mm
01:17 PM 40.5°F4.7°C 32.4°F0.2°C 78% - N N -- 30.43 in1030.5 mb 0.02 in0.5 mm 0.00 in0.0 mm 0.20 in5.1 mm
01:07 PM 40.5°F4.7°C 32.4°F0.2°C 78% - N N -- 30.44 in1030.8 mb 0.02 in0.5 mm 0.01 in0.3 mm 0.19 in4.8 mm
12:47 PM 40.5°F4.7°C 32.7°F0.4°C 79% - N N -- 30.44 in1030.8 mb 0.02 in0.5 mm 0.02 in0.5 mm 0.18 in4.6 mm
12:27 PM 40.6°F4.8°C 32.9°F0.5°C 79% - N N -- 30.43 in1030.5 mb 0.01 in0.3 mm 0.00 in0.0 mm 0.17 in4.3 mm
12:01 PM 40.5°F4.7°C 33.1°F0.6°C 80% - N N -- 30.44 in1030.8 mb 0.02 in0.5 mm 0.00 in0.0 mm 0.16 in4.1 mm
11:42 AM 40.3°F4.6°C 32.9°F0.5°C 80% - N N -- 30.44 in1030.8 mb 0.06 in1.5 mm 0.00 in0.0 mm 0.16 in4.1 mm
11:31 AM 40.5°F4.7°C 32.7°F0.4°C 79% - N N -- 30.44 in1030.8 mb 0.08 in2.0 mm 0.00 in0.0 mm 0.16 in4.1 mm
11:11 AM 41.0°F5.0°C 34.0°F1.1°C 81% - N N -- 30.44 in1030.8 mb 0.08 in2.0 mm 0.09 in2.3 mm 0.15 in3.8 mm
10:41 AM 41.5°F5.3°C 35.2°F1.8°C 83% - N N -- 30.42 in1030.1 mb 0.04 in1.0 mm 0.00 in0.0 mm 0.09 in2.3 mm
10:31 AM 41.7°F5.4°C 35.1°F1.7°C 82% - N N -- 30.43 in1030.5 mb 0.05 in1.3 mm 0.02 in0.5 mm 0.08 in2.0 mm
10:01 AM 41.9°F5.5°C 34.5°F1.4°C 80% - N N -- 30.43 in1030.5 mb 0.04 in1.0 mm 0.01 in0.3 mm 0.06 in1.5 mm
09:45 AM 42.1°F5.6°C 34.3°F1.3°C 79% - N N -- 30.43 in1030.5 mb 0.04 in1.0 mm 0.05 in1.3 mm 0.04 in1.0 mm
09:25 AM 42.3°F5.7°C 34.2°F1.2°C 78% - N N -- 30.43 in1030.5 mb 0.02 in0.5 mm 0.05 in1.3 mm 0.03 in0.8 mm
09:00 AM 42.6°F5.9°C 34.2°F1.2°C 77% - N N -- 30.43 in1030.5 mb 0.00 in0.0 mm 0.00 in0.0 mm 0.01 in0.3 mm
08:50 AM 42.6°F5.9°C 34.2°F1.2°C 77% - N N -- 30.43 in1030.5 mb 0.00 in0.0 mm 0.00 in0.0 mm 0.01 in0.3 mm
08:30 AM 42.8°F6.0°C 34.7°F1.5°C 78% - N N -- 30.43 in1030.5 mb 0.00 in0.0 mm 0.00 in0.0 mm 0.01 in0.3 mm
08:05 AM 43.0°F6.1°C 34.9°F1.6°C 78% - N N -- 30.43 in1030.5 mb 0.00 in0.0 mm 0.00 in0.0 mm 0.01 in0.3 mm
07:44 AM 43.2°F6.2°C 35.1°F1.7°C 78% - N N -- 30.44 in1030.8 mb 0.00 in0.0 mm 0.00 in0.0 mm 0.01 in0.3 mm
07:24 AM 43.3°F6.3°C 35.2°F1.8°C 78% - N N -- 30.43 in1030.5 mb 0.00 in0.0 mm 0.00 in0.0 mm 0.01 in0.3 mm
07:04 AM 43.5°F6.4°C 35.4°F1.9°C 78% - N N -- 30.43 in1030.5 mb 0.01 in0.3 mm 0.00 in0.0 mm 0.01 in0.3 mm
06:44 AM 43.7°F6.5°C 36.0°F2.2°C 79% - N N -- 30.43 in1030.5 mb 0.01 in0.3 mm 0.01 in0.3 mm 0.01 in0.3 mm
06:24 AM 44.1°F6.7°C 36.7°F2.6°C 80% - N N -- 30.42 in1030.1 mb 0.00 in0.0 mm 0.01 in0.3 mm 0.00 in0.0 mm
06:03 AM 44.2°F6.8°C 36.9°F2.7°C 80% - N N -- 30.42 in1030.1 mb 0.00 in0.0 mm 0.00 in0.0 mm 0.00 in0.0 mm
05:44 AM 44.4°F6.9°C 36.7°F2.6°C 79% - N N -- 30.43 in1030.5 mb 0.00 in0.0 mm 0.00 in0.0 mm 0.00 in0.0 mm
05:18 AM 44.4°F6.9°C 37.0°F2.8°C 80% - N N -- 30.43 in1030.5 mb 0.00 in0.0 mm 0.00 in0.0 mm 0.00 in0.0 mm
05:09 AM 44.2°F6.8°C 36.9°F2.7°C 80% - N N -- 30.42 in1030.1 mb 0.00 in0.0 mm 0.00 in0.0 mm 0.00 in0.0 mm
04:48 AM 43.5°F6.4°C 36.1°F2.3°C 80% - N N -- 30.43 in1030.5 mb 0.00 in0.0 mm 0.00 in0.0 mm 0.00 in0.0 mm
04:28 AM 43.3°F6.3°C 35.6°F2.0°C 79% - N N -- 30.43 in1030.5 mb 0.00 in0.0 mm 0.00 in0.0 mm 0.00 in0.0 mm
03:58 AM 43.3°F6.3°C 35.6°F2.0°C 79% - N N -- 30.44 in1030.8 mb 0.00 in0.0 mm 0.00 in0.0 mm 0.00 in0.0 mm
03:47 AM 43.2°F6.2°C 35.4°F1.9°C 79% - N N -- 30.44 in1030.8 mb 0.00 in0.0 mm 0.00 in0.0 mm 0.00 in0.0 mm
03:28 AM 43.3°F6.3°C 35.6°F2.0°C 79% - N N -- 30.44 in1030.8 mb 0.00 in0.0 mm 0.00 in0.0 mm 0.00 in0.0 mm
03:07 AM 43.3°F6.3°C 35.6°F2.0°C 79% - N N -- 30.44 in1030.8 mb 0.00 in0.0 mm 0.00 in0.0 mm 0.00 in0.0 mm
02:47 AM 42.8°F6.0°C 35.1°F1.7°C 79% - N N -- 30.44 in1030.8 mb 0.00 in0.0 mm 0.00 in0.0 mm 0.00 in0.0 mm
02:27 AM 42.3°F5.7°C 34.9°F1.6°C 80% - N N -- 30.45 in1031.2 mb 0.00 in0.0 mm 0.00 in0.0 mm 0.00 in0.0 mm
01:51 AM 42.3°F5.7°C 34.5°F1.4°C 79% - N N -- 30.46 in1031.5 mb 0.00 in0.0 mm 0.00 in0.0 mm 0.00 in0.0 mm
01:37 AM 42.3°F5.7°C 34.2°F1.2°C 78% - N N -- 30.46 in1031.5 mb 0.00 in0.0 mm 0.00 in0.0 mm 0.00 in0.0 mm
01:26 AM 42.4°F5.8°C 34.3°F1.3°C 78% - N N -- 30.46 in1031.5 mb 0.00 in0.0 mm 0.00 in0.0 mm 0.00 in0.0 mm
01:01 AM 43.3°F6.3°C 34.9°F1.6°C 77% - N N -- 30.47 in1031.8 mb 0.00 in0.0 mm 0.00 in0.0 mm 0.00 in0.0 mm
12:50 AM 43.5°F6.4°C 34.7°F1.5°C 76% - N N -- 30.47 in1031.8 mb 0.00 in0.0 mm 0.00 in0.0 mm 0.00 in0.0 mm
12:31 AM 44.4°F6.9°C 34.7°F1.5°C 74% - N N -- 30.48 in1032.2 mb 0.00 in0.0 mm 0.00 in0.0 mm 0.00 in0.0 mm